sensor_id;sensor_type;location;lat;lon;timestamp;P1;durP1;ratioP1;P2;durP2;ratioP2
62037;SDS011;47991;42.974;12.082;2022-07-10T00:01:15;4.70;;;2.70;;
62037;SDS011;47991;42.974;12.082;2022-07-10T00:03:43;5.40;;;2.80;;
62037;SDS011;47991;42.974;12.082;2022-07-10T00:06:11;18.70;;;4.10;;
62037;SDS011;47991;42.974;12.082;2022-07-10T00:08:39;5.80;;;2.60;;
62037;SDS011;47991;42.974;12.082;2022-07-10T00:11:07;7.10;;;2.80;;
62037;SDS011;47991;42.974;12.082;2022-07-10T00:13:36;5.70;;;2.80;;
62037;SDS011;47991;42.974;12.082;2022-07-10T00:16:09;7.00;;;2.80;;
62037;SDS011;47991;42.974;12.082;2022-07-10T00:18:37;6.30;;;2.80;;
62037;SDS011;47991;42.974;12.082;2022-07-10T00:21:05;8.20;;;2.70;;
62037;SDS011;47991;42.974;12.082;2022-07-10T00:23:36;6.10;;;2.90;;
62037;SDS011;47991;42.974;12.082;2022-07-10T00:26:04;5.80;;;3.10;;
62037;SDS011;47991;42.974;12.082;2022-07-10T00:28:32;5.50;;;2.60;;
62037;SDS011;47991;42.974;12.082;2022-07-10T00:31:00;4.40;;;2.80;;
62037;SDS011;47991;42.974;12.082;2022-07-10T00:33:28;5.00;;;2.70;;
62037;SDS011;47991;42.974;12.082;2022-07-10T00:36:01;7.00;;;2.90;;
62037;SDS011;47991;42.974;12.082;2022-07-10T00:38:29;6.10;;;2.80;;
62037;SDS011;47991;42.974;12.082;2022-07-10T00:40:58;4.90;;;2.60;;
62037;SDS011;47991;42.974;12.082;2022-07-10T00:43:26;5.20;;;2.50;;
62037;SDS011;47991;42.974;12.082;2022-07-10T00:46:09;5.50;;;2.80;;
62037;SDS011;47991;42.974;12.082;2022-07-10T00:48:37;5.10;;;2.70;;
62037;SDS011;47991;42.974;12.082;2022-07-10T00:51:08;6.60;;;2.80;;
62037;SDS011;47991;42.974;12.082;2022-07-10T00:53:36;5.20;;;3.00;;
62037;SDS011;47991;42.974;12.082;2022-07-10T00:56:04;5.30;;;2.70;;
62037;SDS011;47991;42.974;12.082;2022-07-10T00:58:36;5.80;;;2.80;;
62037;SDS011;47991;42.974;12.082;2022-07-10T01:01:04;5.80;;;2.60;;
62037;SDS011;47991;42.974;12.082;2022-07-10T01:03:34;5.70;;;2.60;;
62037;SDS011;47991;42.974;12.082;2022-07-10T01:06:03;4.80;;;2.50;;
62037;SDS011;47991;42.974;12.082;2022-07-10T01:08:32;5.20;;;2.30;;
62037;SDS011;47991;42.974;12.082;2022-07-10T01:11:04;4.50;;;2.50;;
62037;SDS011;47991;42.974;12.082;2022-07-10T01:13:32;5.10;;;2.40;;
62037;SDS011;47991;42.974;12.082;2022-07-10T01:16:00;4.10;;;2.50;;
62037;SDS011;47991;42.974;12.082;2022-07-10T01:18:29;5.80;;;2.40;;
62037;SDS011;47991;42.974;12.082;2022-07-10T01:20:57;4.40;;;2.20;;
62037;SDS011;47991;42.974;12.082;2022-07-10T01:23:25;3.50;;;2.10;;
62037;SDS011;47991;42.974;12.082;2022-07-10T01:28:23;6.40;;;2.60;;
62037;SDS011;47991;42.974;12.082;2022-07-10T01:30:54;5.40;;;2.30;;
62037;SDS011;47991;42.974;12.082;2022-07-10T01:33:22;5.50;;;2.30;;
62037;SDS011;47991;42.974;12.082;2022-07-10T01:35:50;4.40;;;2.00;;
62037;SDS011;47991;42.974;12.082;2022-07-10T01:38:18;4.30;;;2.40;;
62037;SDS011;47991;42.974;12.082;2022-07-10T01:40:46;5.00;;;2.20;;
62037;SDS011;47991;42.974;12.082;2022-07-10T01:43:14;6.20;;;2.30;;
62037;SDS011;47991;42.974;12.082;2022-07-10T01:45:42;6.40;;;2.40;;
62037;SDS011;47991;42.974;12.082;2022-07-10T01:48:10;4.30;;;2.30;;
62037;SDS011;47991;42.974;12.082;2022-07-10T01:50:38;4.90;;;2.60;;
62037;SDS011;47991;42.974;12.082;2022-07-10T01:53:12;5.10;;;2.40;;
62037;SDS011;47991;42.974;12.082;2022-07-10T01:55:43;6.60;;;2.30;;
62037;SDS011;47991;42.974;12.082;2022-07-10T01:58:11;3.90;;;2.20;;
62037;SDS011;47991;42.974;12.082;2022-07-10T02:00:39;4.50;;;2.40;;
62037;SDS011;47991;42.974;12.082;2022-07-10T02:03:10;5.40;;;2.50;;
62037;SDS011;47991;42.974;12.082;2022-07-10T02:05:57;5.60;;;2.40;;
62037;SDS011;47991;42.974;12.082;2022-07-10T02:08:25;4.20;;;2.20;;
62037;SDS011;47991;42.974;12.082;2022-07-10T02:10:55;4.70;;;2.60;;
62037;SDS011;47991;42.974;12.082;2022-07-10T02:13:24;4.60;;;2.30;;
62037;SDS011;47991;42.974;12.082;2022-07-10T02:15:54;4.40;;;2.30;;
62037;SDS011;47991;42.974;12.082;2022-07-10T02:18:23;4.50;;;2.30;;
62037;SDS011;47991;42.974;12.082;2022-07-10T02:20:52;5.00;;;2.30;;
62037;SDS011;47991;42.974;12.082;2022-07-10T02:23:20;5.00;;;2.30;;
62037;SDS011;47991;42.974;12.082;2022-07-10T02:25:48;4.20;;;2.20;;
62037;SDS011;47991;42.974;12.082;2022-07-10T02:28:24;4.40;;;2.40;;
62037;SDS011;47991;42.974;12.082;2022-07-10T02:30:53;4.60;;;2.20;;
62037;SDS011;47991;42.974;12.082;2022-07-10T02:33:21;4.60;;;2.30;;
62037;SDS011;47991;42.974;12.082;2022-07-10T02:35:49;3.80;;;2.20;;
62037;SDS011;47991;42.974;12.082;2022-07-10T02:38:18;4.90;;;2.30;;
62037;SDS011;47991;42.974;12.082;2022-07-10T02:40:45;5.30;;;2.40;;
62037;SDS011;47991;42.974;12.082;2022-07-10T02:43:16;5.10;;;2.60;;
62037;SDS011;47991;42.974;12.082;2022-07-10T02:45:44;4.70;;;2.30;;
62037;SDS011;47991;42.974;12.082;2022-07-10T02:48:14;4.30;;;2.40;;
62037;SDS011;47991;42.974;12.082;2022-07-10T02:50:43;5.90;;;2.50;;
62037;SDS011;47991;42.974;12.082;2022-07-10T02:53:11;5.10;;;2.50;;
62037;SDS011;47991;42.974;12.082;2022-07-10T02:55:39;4.80;;;2.20;;
62037;SDS011;47991;42.974;12.082;2022-07-10T02:58:06;4.50;;;2.00;;
62037;SDS011;47991;42.974;12.082;2022-07-10T03:00:36;4.90;;;2.40;;
62037;SDS011;47991;42.974;12.082;2022-07-10T03:03:08;5.10;;;2.60;;
62037;SDS011;47991;42.974;12.082;2022-07-10T03:05:36;5.40;;;2.10;;
62037;SDS011;47991;42.974;12.082;2022-07-10T03:08:04;5.20;;;2.30;;
62037;SDS011;47991;42.974;12.082;2022-07-10T03:10:33;4.40;;;2.20;;
62037;SDS011;47991;42.974;12.082;2022-07-10T03:13:03;4.20;;;2.00;;
62037;SDS011;47991;42.974;12.082;2022-07-10T03:15:31;4.50;;;2.20;;
62037;SDS011;47991;42.974;12.082;2022-07-10T03:17:59;5.40;;;2.50;;
62037;SDS011;47991;42.974;12.082;2022-07-10T03:20:28;4.40;;;2.30;;
62037;SDS011;47991;42.974;12.082;2022-07-10T03:22:57;3.50;;;2.00;;
62037;SDS011;47991;42.974;12.082;2022-07-10T03:25:25;4.70;;;2.30;;
62037;SDS011;47991;42.974;12.082;2022-07-10T03:27:53;5.20;;;2.40;;
62037;SDS011;47991;42.974;12.082;2022-07-10T03:30:22;3.90;;;2.20;;
62037;SDS011;47991;42.974;12.082;2022-07-10T03:32:49;4.80;;;2.40;;
62037;SDS011;47991;42.974;12.082;2022-07-10T03:35:17;4.70;;;2.30;;
62037;SDS011;47991;42.974;12.082;2022-07-10T03:37:45;5.40;;;2.40;;
62037;SDS011;47991;42.974;12.082;2022-07-10T03:40:14;4.70;;;2.10;;
62037;SDS011;47991;42.974;12.082;2022-07-10T03:42:42;5.60;;;2.20;;
62037;SDS011;47991;42.974;12.082;2022-07-10T03:45:12;9.70;;;2.20;;
62037;SDS011;47991;42.974;12.082;2022-07-10T03:47:44;6.00;;;2.40;;
62037;SDS011;47991;42.974;12.082;2022-07-10T03:50:12;5.20;;;2.20;;
62037;SDS011;47991;42.974;12.082;2022-07-10T03:52:41;4.40;;;2.30;;
62037;SDS011;47991;42.974;12.082;2022-07-10T03:55:09;5.20;;;2.10;;
62037;SDS011;47991;42.974;12.082;2022-07-10T03:57:38;6.30;;;2.40;;
62037;SDS011;47991;42.974;12.082;2022-07-10T04:00:24;4.70;;;2.10;;
62037;SDS011;47991;42.974;12.082;2022-07-10T04:02:57;4.10;;;2.20;;
62037;SDS011;47991;42.974;12.082;2022-07-10T04:05:29;6.70;;;2.40;;
62037;SDS011;47991;42.974;12.082;2022-07-10T04:07:58;6.90;;;2.20;;
62037;SDS011;47991;42.974;12.082;2022-07-10T04:10:29;5.70;;;2.20;;
62037;SDS011;47991;42.974;12.082;2022-07-10T04:13:00;6.90;;;2.60;;
62037;SDS011;47991;42.974;12.082;2022-07-10T04:15:29;7.30;;;2.70;;
62037;SDS011;47991;42.974;12.082;2022-07-10T04:17:57;5.00;;;2.40;;
62037;SDS011;47991;42.974;12.082;2022-07-10T04:20:26;7.80;;;2.80;;
62037;SDS011;47991;42.974;12.082;2022-07-10T04:22:54;13.30;;;3.10;;
62037;SDS011;47991;42.974;12.082;2022-07-10T04:25:23;6.90;;;2.20;;
62037;SDS011;47991;42.974;12.082;2022-07-10T04:27:51;4.80;;;2.30;;
62037;SDS011;47991;42.974;12.082;2022-07-10T04:30:22;9.20;;;2.60;;
62037;SDS011;47991;42.974;12.082;2022-07-10T04:32:50;6.10;;;2.10;;
62037;SDS011;47991;42.974;12.082;2022-07-10T04:35:21;5.10;;;2.10;;
62037;SDS011;47991;42.974;12.082;2022-07-10T04:37:53;7.50;;;2.30;;
62037;SDS011;47991;42.974;12.082;2022-07-10T04:40:21;9.60;;;2.20;;
62037;SDS011;47991;42.974;12.082;2022-07-10T04:42:51;4.30;;;2.00;;
62037;SDS011;47991;42.974;12.082;2022-07-10T04:45:24;4.70;;;1.80;;
62037;SDS011;47991;42.974;12.082;2022-07-10T04:47:53;8.90;;;2.60;;
62037;SDS011;47991;42.974;12.082;2022-07-10T04:50:21;6.00;;;2.30;;
62037;SDS011;47991;42.974;12.082;2022-07-10T04:52:49;4.40;;;2.00;;
62037;SDS011;47991;42.974;12.082;2022-07-10T04:55:18;2.90;;;1.90;;
62037;SDS011;47991;42.974;12.082;2022-07-10T04:57:51;4.00;;;1.90;;
62037;SDS011;47991;42.974;12.082;2022-07-10T05:00:19;3.00;;;1.80;;
62037;SDS011;47991;42.974;12.082;2022-07-10T05:02:48;4.10;;;2.10;;
62037;SDS011;47991;42.974;12.082;2022-07-10T05:05:16;4.60;;;2.10;;
62037;SDS011;47991;42.974;12.082;2022-07-10T05:07:49;8.40;;;2.40;;
62037;SDS011;47991;42.974;12.082;2022-07-10T05:12:44;5.80;;;2.40;;
62037;SDS011;47991;42.974;12.082;2022-07-10T05:18:45;4.20;;;2.00;;
62037;SDS011;47991;42.974;12.082;2022-07-10T05:21:13;6.30;;;2.20;;
62037;SDS011;47991;42.974;12.082;2022-07-10T05:23:42;6.20;;;2.10;;
62037;SDS011;47991;42.974;12.082;2022-07-10T05:26:31;4.60;;;2.20;;
62037;SDS011;47991;42.974;12.082;2022-07-10T05:28:59;4.50;;;1.70;;
62037;SDS011;47991;42.974;12.082;2022-07-10T05:31:36;3.70;;;2.00;;
62037;SDS011;47991;42.974;12.082;2022-07-10T05:34:05;3.00;;;1.80;;
62037;SDS011;47991;42.974;12.082;2022-07-10T05:36:33;4.50;;;2.00;;
62037;SDS011;47991;42.974;12.082;2022-07-10T05:39:01;4.90;;;2.00;;
62037;SDS011;47991;42.974;12.082;2022-07-10T05:41:32;3.40;;;1.90;;
62037;SDS011;47991;42.974;12.082;2022-07-10T05:44:00;5.00;;;2.00;;
62037;SDS011;47991;42.974;12.082;2022-07-10T05:46:30;6.90;;;2.10;;
62037;SDS011;47991;42.974;12.082;2022-07-10T05:48:58;4.10;;;2.00;;
62037;SDS011;47991;42.974;12.082;2022-07-10T05:51:26;3.70;;;1.60;;
62037;SDS011;47991;42.974;12.082;2022-07-10T05:53:54;4.00;;;1.90;;
62037;SDS011;47991;42.974;12.082;2022-07-10T05:56:22;4.80;;;1.90;;
62037;SDS011;47991;42.974;12.082;2022-07-10T05:58:50;2.60;;;1.70;;
62037;SDS011;47991;42.974;12.082;2022-07-10T06:01:22;3.40;;;2.00;;
62037;SDS011;47991;42.974;12.082;2022-07-10T06:03:51;3.50;;;1.90;;
62037;SDS011;47991;42.974;12.082;2022-07-10T06:06:19;3.00;;;1.80;;
62037;SDS011;47991;42.974;12.082;2022-07-10T06:08:47;2.20;;;1.60;;
62037;SDS011;47991;42.974;12.082;2022-07-10T06:11:14;5.10;;;1.90;;
62037;SDS011;47991;42.974;12.082;2022-07-10T06:13:45;4.50;;;2.10;;
62037;SDS011;47991;42.974;12.082;2022-07-10T06:16:14;4.50;;;2.10;;
62037;SDS011;47991;42.974;12.082;2022-07-10T06:18:45;6.00;;;2.10;;
62037;SDS011;47991;42.974;12.082;2022-07-10T06:21:12;5.80;;;2.20;;
62037;SDS011;47991;42.974;12.082;2022-07-10T06:23:48;7.80;;;2.30;;
62037;SDS011;47991;42.974;12.082;2022-07-10T06:26:18;4.00;;;1.80;;
62037;SDS011;47991;42.974;12.082;2022-07-10T06:28:46;4.00;;;1.80;;
62037;SDS011;47991;42.974;12.082;2022-07-10T06:31:14;2.90;;;1.70;;
62037;SDS011;47991;42.974;12.082;2022-07-10T06:33:45;4.20;;;1.80;;
62037;SDS011;47991;42.974;12.082;2022-07-10T06:36:13;4.60;;;2.10;;
62037;SDS011;47991;42.974;12.082;2022-07-10T06:38:41;5.40;;;2.10;;
62037;SDS011;47991;42.974;12.082;2022-07-10T06:41:10;4.00;;;1.80;;
62037;SDS011;47991;42.974;12.082;2022-07-10T06:43:38;3.70;;;1.70;;
62037;SDS011;47991;42.974;12.082;2022-07-10T06:46:06;5.70;;;1.90;;
62037;SDS011;47991;42.974;12.082;2022-07-10T06:48:34;3.40;;;1.80;;
62037;SDS011;47991;42.974;12.082;2022-07-10T06:53:34;5.00;;;1.90;;
62037;SDS011;47991;42.974;12.082;2022-07-10T06:56:09;5.40;;;1.90;;
62037;SDS011;47991;42.974;12.082;2022-07-10T06:58:37;4.40;;;2.00;;
62037;SDS011;47991;42.974;12.082;2022-07-10T07:01:08;3.30;;;1.80;;
62037;SDS011;47991;42.974;12.082;2022-07-10T07:03:36;3.10;;;1.80;;
62037;SDS011;47991;42.974;12.082;2022-07-10T07:06:04;4.50;;;2.00;;
62037;SDS011;47991;42.974;12.082;2022-07-10T07:08:32;4.80;;;2.00;;
62037;SDS011;47991;42.974;12.082;2022-07-10T07:11:06;4.60;;;2.00;;
62037;SDS011;47991;42.974;12.082;2022-07-10T07:13:33;3.00;;;1.80;;
62037;SDS011;47991;42.974;12.082;2022-07-10T07:16:01;5.40;;;1.90;;
62037;SDS011;47991;42.974;12.082;2022-07-10T07:18:33;5.70;;;2.00;;
62037;SDS011;47991;42.974;12.082;2022-07-10T07:21:02;3.30;;;1.80;;
62037;SDS011;47991;42.974;12.082;2022-07-10T07:24:03;3.30;;;1.60;;
62037;SDS011;47991;42.974;12.082;2022-07-10T07:26:32;3.90;;;1.90;;
62037;SDS011;47991;42.974;12.082;2022-07-10T07:29:00;3.60;;;1.60;;
62037;SDS011;47991;42.974;12.082;2022-07-10T07:31:27;3.10;;;1.60;;
62037;SDS011;47991;42.974;12.082;2022-07-10T07:33:55;2.50;;;1.60;;
62037;SDS011;47991;42.974;12.082;2022-07-10T07:36:26;5.60;;;2.00;;
62037;SDS011;47991;42.974;12.082;2022-07-10T07:38:57;3.00;;;1.80;;
62037;SDS011;47991;42.974;12.082;2022-07-10T07:41:25;3.90;;;1.90;;
62037;SDS011;47991;42.974;12.082;2022-07-10T07:43:53;2.70;;;1.50;;
62037;SDS011;47991;42.974;12.082;2022-07-10T07:46:21;3.40;;;1.90;;
62037;SDS011;47991;42.974;12.082;2022-07-10T07:48:53;3.60;;;1.70;;
62037;SDS011;47991;42.974;12.082;2022-07-10T07:51:26;2.10;;;1.40;;
62037;SDS011;47991;42.974;12.082;2022-07-10T07:53:54;4.40;;;1.80;;
62037;SDS011;47991;42.974;12.082;2022-07-10T07:56:21;3.60;;;1.80;;
62037;SDS011;47991;42.974;12.082;2022-07-10T07:58:49;3.60;;;1.80;;
62037;SDS011;47991;42.974;12.082;2022-07-10T08:01:16;4.30;;;2.00;;
62037;SDS011;47991;42.974;12.082;2022-07-10T08:03:53;1.90;;;1.50;;
62037;SDS011;47991;42.974;12.082;2022-07-10T08:06:23;3.00;;;1.50;;
62037;SDS011;47991;42.974;12.082;2022-07-10T08:08:55;3.50;;;1.90;;
62037;SDS011;47991;42.974;12.082;2022-07-10T08:11:24;3.10;;;1.50;;
62037;SDS011;47991;42.974;12.082;2022-07-10T08:13:52;2.90;;;1.60;;
62037;SDS011;47991;42.974;12.082;2022-07-10T08:16:19;5.30;;;2.10;;
62037;SDS011;47991;42.974;12.082;2022-07-10T08:18:47;4.10;;;1.60;;
62037;SDS011;47991;42.974;12.082;2022-07-10T08:21:15;5.90;;;1.60;;
62037;SDS011;47991;42.974;12.082;2022-07-10T08:23:43;4.20;;;2.00;;
62037;SDS011;47991;42.974;12.082;2022-07-10T08:26:11;3.70;;;1.80;;
62037;SDS011;47991;42.974;12.082;2022-07-10T08:28:38;5.00;;;1.60;;
62037;SDS011;47991;42.974;12.082;2022-07-10T08:31:06;4.10;;;1.60;;
62037;SDS011;47991;42.974;12.082;2022-07-10T08:33:34;4.20;;;1.70;;
62037;SDS011;47991;42.974;12.082;2022-07-10T08:36:02;2.80;;;1.60;;
62037;SDS011;47991;42.974;12.082;2022-07-10T08:38:35;3.90;;;1.90;;
62037;SDS011;47991;42.974;12.082;2022-07-10T08:41:03;4.20;;;1.80;;
62037;SDS011;47991;42.974;12.082;2022-07-10T08:43:32;3.50;;;1.60;;
62037;SDS011;47991;42.974;12.082;2022-07-10T08:45:59;3.60;;;1.80;;
62037;SDS011;47991;42.974;12.082;2022-07-10T08:48:28;3.30;;;1.70;;
62037;SDS011;47991;42.974;12.082;2022-07-10T08:51:02;2.30;;;1.50;;
62037;SDS011;47991;42.974;12.082;2022-07-10T08:53:34;3.90;;;1.60;;
62037;SDS011;47991;42.974;12.082;2022-07-10T08:56:01;3.70;;;1.50;;
62037;SDS011;47991;42.974;12.082;2022-07-10T08:58:30;4.00;;;1.60;;
62037;SDS011;47991;42.974;12.082;2022-07-10T09:01:00;3.50;;;1.70;;
62037;SDS011;47991;42.974;12.082;2022-07-10T09:03:30;4.20;;;1.40;;
62037;SDS011;47991;42.974;12.082;2022-07-10T09:05:59;3.10;;;1.40;;
62037;SDS011;47991;42.974;12.082;2022-07-10T09:08:28;3.90;;;1.60;;
62037;SDS011;47991;42.974;12.082;2022-07-10T09:11:17;3.40;;;1.50;;
62037;SDS011;47991;42.974;12.082;2022-07-10T09:13:48;2.80;;;1.40;;
62037;SDS011;47991;42.974;12.082;2022-07-10T09:16:40;1.90;;;1.30;;
62037;SDS011;47991;42.974;12.082;2022-07-10T09:19:19;2.50;;;1.40;;
62037;SDS011;47991;42.974;12.082;2022-07-10T09:24:21;3.60;;;1.40;;
62037;SDS011;47991;42.974;12.082;2022-07-10T09:29:23;3.20;;;1.60;;
62037;SDS011;47991;42.974;12.082;2022-07-10T09:31:55;5.30;;;1.90;;
62037;SDS011;47991;42.974;12.082;2022-07-10T09:34:37;4.10;;;1.80;;
62037;SDS011;47991;42.974;12.082;2022-07-10T09:39:51;2.30;;;1.40;;
62037;SDS011;47991;42.974;12.082;2022-07-10T09:45:15;1.70;;;1.30;;
62037;SDS011;47991;42.974;12.082;2022-07-10T09:47:45;2.60;;;1.50;;
62037;SDS011;47991;42.974;12.082;2022-07-10T09:53:04;2.80;;;1.50;;
62037;SDS011;47991;42.974;12.082;2022-07-10T09:55:34;2.90;;;1.60;;
62037;SDS011;47991;42.974;12.082;2022-07-10T09:58:07;2.80;;;1.80;;
62037;SDS011;47991;42.974;12.082;2022-07-10T10:00:39;2.80;;;1.50;;
62037;SDS011;47991;42.974;12.082;2022-07-10T10:03:10;4.40;;;1.70;;
62037;SDS011;47991;42.974;12.082;2022-07-10T10:05:54;2.50;;;1.50;;
62037;SDS011;47991;42.974;12.082;2022-07-10T10:08:37;2.30;;;1.50;;
62037;SDS011;47991;42.974;12.082;2022-07-10T10:11:18;3.00;;;1.60;;
62037;SDS011;47991;42.974;12.082;2022-07-10T10:13:50;2.40;;;1.40;;
62037;SDS011;47991;42.974;12.082;2022-07-10T10:16:19;2.80;;;1.60;;
62037;SDS011;47991;42.974;12.082;2022-07-10T10:18:47;3.40;;;1.50;;
62037;SDS011;47991;42.974;12.082;2022-07-10T10:21:36;2.20;;;1.30;;
62037;SDS011;47991;42.974;12.082;2022-07-10T10:24:03;2.50;;;1.40;;
62037;SDS011;47991;42.974;12.082;2022-07-10T10:26:33;2.30;;;1.50;;
62037;SDS011;47991;42.974;12.082;2022-07-10T10:29:01;2.40;;;1.30;;
62037;SDS011;47991;42.974;12.082;2022-07-10T10:31:31;2.20;;;1.30;;
62037;SDS011;47991;42.974;12.082;2022-07-10T10:34:00;3.60;;;1.60;;
62037;SDS011;47991;42.974;12.082;2022-07-10T10:39:17;1.90;;;1.40;;
62037;SDS011;47991;42.974;12.082;2022-07-10T10:44:19;2.40;;;1.50;;
62037;SDS011;47991;42.974;12.082;2022-07-10T10:49:20;2.80;;;1.50;;
62037;SDS011;47991;42.974;12.082;2022-07-10T10:54:30;3.10;;;1.70;;
62037;SDS011;47991;42.974;12.082;2022-07-10T10:57:18;1.90;;;1.50;;
62037;SDS011;47991;42.974;12.082;2022-07-10T10:59:53;4.50;;;1.60;;
62037;SDS011;47991;42.974;12.082;2022-07-10T11:02:29;2.10;;;1.40;;
62037;SDS011;47991;42.974;12.082;2022-07-10T11:08:05;2.50;;;1.40;;
62037;SDS011;47991;42.974;12.082;2022-07-10T11:10:35;3.30;;;1.60;;
62037;SDS011;47991;42.974;12.082;2022-07-10T11:13:08;2.70;;;1.60;;
62037;SDS011;47991;42.974;12.082;2022-07-10T11:15:44;3.00;;;1.60;;
62037;SDS011;47991;42.974;12.082;2022-07-10T11:20:46;1.90;;;1.40;;
62037;SDS011;47991;42.974;12.082;2022-07-10T11:23:34;2.50;;;1.50;;
62037;SDS011;47991;42.974;12.082;2022-07-10T11:26:44;2.50;;;1.40;;
62037;SDS011;47991;42.974;12.082;2022-07-10T11:29:23;2.60;;;1.30;;
62037;SDS011;47991;42.974;12.082;2022-07-10T11:31:52;2.80;;;1.50;;
62037;SDS011;47991;42.974;12.082;2022-07-10T11:34:25;3.20;;;1.40;;
62037;SDS011;47991;42.974;12.082;2022-07-10T11:37:02;2.00;;;1.60;;
62037;SDS011;47991;42.974;12.082;2022-07-10T11:39:40;2.80;;;1.40;;
62037;SDS011;47991;42.974;12.082;2022-07-10T11:42:07;3.40;;;1.70;;
62037;SDS011;47991;42.974;12.082;2022-07-10T11:44:38;3.80;;;1.60;;
62037;SDS011;47991;42.974;12.082;2022-07-10T11:47:09;2.80;;;1.50;;
62037;SDS011;47991;42.974;12.082;2022-07-10T11:49:44;2.30;;;1.50;;
62037;SDS011;47991;42.974;12.082;2022-07-10T11:52:17;2.20;;;1.50;;
62037;SDS011;47991;42.974;12.082;2022-07-10T11:54:44;3.50;;;1.60;;
62037;SDS011;47991;42.974;12.082;2022-07-10T11:57:12;3.30;;;1.60;;
62037;SDS011;47991;42.974;12.082;2022-07-10T11:59:40;2.20;;;1.50;;
62037;SDS011;47991;42.974;12.082;2022-07-10T12:02:08;3.50;;;1.80;;
62037;SDS011;47991;42.974;12.082;2022-07-10T12:04:40;3.10;;;1.50;;
62037;SDS011;47991;42.974;12.082;2022-07-10T12:07:19;2.10;;;1.50;;
62037;SDS011;47991;42.974;12.082;2022-07-10T12:09:54;3.20;;;1.80;;
62037;SDS011;47991;42.974;12.082;2022-07-10T12:12:22;2.90;;;1.50;;
62037;SDS011;47991;42.974;12.082;2022-07-10T12:14:51;2.80;;;1.60;;
62037;SDS011;47991;42.974;12.082;2022-07-10T12:17:25;2.70;;;1.50;;
62037;SDS011;47991;42.974;12.082;2022-07-10T12:19:53;1.40;;;1.30;;
62037;SDS011;47991;42.974;12.082;2022-07-10T12:22:23;2.90;;;1.60;;
62037;SDS011;47991;42.974;12.082;2022-07-10T12:24:51;3.00;;;1.40;;
62037;SDS011;47991;42.974;12.082;2022-07-10T12:27:41;2.10;;;1.50;;
62037;SDS011;47991;42.974;12.082;2022-07-10T12:30:09;2.40;;;1.50;;
62037;SDS011;47991;42.974;12.082;2022-07-10T12:32:37;2.60;;;1.60;;
62037;SDS011;47991;42.974;12.082;2022-07-10T12:35:04;2.80;;;1.70;;
62037;SDS011;47991;42.974;12.082;2022-07-10T12:37:46;2.40;;;1.40;;
62037;SDS011;47991;42.974;12.082;2022-07-10T12:40:31;3.80;;;1.40;;
62037;SDS011;47991;42.974;12.082;2022-07-10T12:43:03;1.50;;;1.30;;
62037;SDS011;47991;42.974;12.082;2022-07-10T12:45:33;3.30;;;1.60;;
62037;SDS011;47991;42.974;12.082;2022-07-10T12:48:01;2.60;;;1.70;;
62037;SDS011;47991;42.974;12.082;2022-07-10T12:50:32;3.10;;;1.50;;
62037;SDS011;47991;42.974;12.082;2022-07-10T12:53:08;3.70;;;1.70;;
62037;SDS011;47991;42.974;12.082;2022-07-10T12:55:40;1.60;;;1.30;;
62037;SDS011;47991;42.974;12.082;2022-07-10T12:58:09;2.30;;;1.50;;
62037;SDS011;47991;42.974;12.082;2022-07-10T13:00:45;3.20;;;1.60;;
62037;SDS011;47991;42.974;12.082;2022-07-10T13:03:23;3.80;;;1.60;;
62037;SDS011;47991;42.974;12.082;2022-07-10T13:05:54;1.90;;;1.50;;
62037;SDS011;47991;42.974;12.082;2022-07-10T13:13:22;3.20;;;1.70;;
62037;SDS011;47991;42.974;12.082;2022-07-10T13:15:50;2.80;;;1.50;;
62037;SDS011;47991;42.974;12.082;2022-07-10T13:18:21;3.30;;;1.80;;
62037;SDS011;47991;42.974;12.082;2022-07-10T13:20:51;3.60;;;1.70;;
62037;SDS011;47991;42.974;12.082;2022-07-10T13:23:21;4.30;;;1.70;;
62037;SDS011;47991;42.974;12.082;2022-07-10T13:25:50;2.40;;;1.60;;
62037;SDS011;47991;42.974;12.082;2022-07-10T13:28:21;2.30;;;1.50;;
62037;SDS011;47991;42.974;12.082;2022-07-10T13:30:51;3.00;;;1.60;;
62037;SDS011;47991;42.974;12.082;2022-07-10T13:33:19;3.60;;;1.60;;
62037;SDS011;47991;42.974;12.082;2022-07-10T13:35:47;3.30;;;1.50;;
62037;SDS011;47991;42.974;12.082;2022-07-10T13:38:15;3.50;;;1.50;;
62037;SDS011;47991;42.974;12.082;2022-07-10T13:40:47;1.70;;;1.40;;
62037;SDS011;47991;42.974;12.082;2022-07-10T13:43:24;1.70;;;1.60;;
62037;SDS011;47991;42.974;12.082;2022-07-10T13:45:59;2.90;;;1.60;;
62037;SDS011;47991;42.974;12.082;2022-07-10T13:48:28;2.50;;;1.50;;
62037;SDS011;47991;42.974;12.082;2022-07-10T13:50:56;1.60;;;1.50;;
62037;SDS011;47991;42.974;12.082;2022-07-10T13:53:24;2.20;;;1.50;;
62037;SDS011;47991;42.974;12.082;2022-07-10T13:55:52;2.50;;;1.60;;
62037;SDS011;47991;42.974;12.082;2022-07-10T13:58:20;2.90;;;1.50;;
62037;SDS011;47991;42.974;12.082;2022-07-10T14:00:49;4.00;;;1.70;;
62037;SDS011;47991;42.974;12.082;2022-07-10T14:03:17;2.50;;;1.60;;
62037;SDS011;47991;42.974;12.082;2022-07-10T14:05:44;2.80;;;1.70;;
62037;SDS011;47991;42.974;12.082;2022-07-10T14:08:12;3.40;;;1.60;;
62037;SDS011;47991;42.974;12.082;2022-07-10T14:10:40;2.70;;;1.60;;
62037;SDS011;47991;42.974;12.082;2022-07-10T14:13:08;3.40;;;1.70;;
62037;SDS011;47991;42.974;12.082;2022-07-10T14:15:37;3.10;;;1.60;;
62037;SDS011;47991;42.974;12.082;2022-07-10T14:18:04;2.00;;;1.60;;
62037;SDS011;47991;42.974;12.082;2022-07-10T14:20:32;2.00;;;1.60;;
62037;SDS011;47991;42.974;12.082;2022-07-10T14:23:19;2.50;;;1.80;;
62037;SDS011;47991;42.974;12.082;2022-07-10T14:25:48;6.10;;;1.70;;
62037;SDS011;47991;42.974;12.082;2022-07-10T14:28:21;3.20;;;1.70;;
62037;SDS011;47991;42.974;12.082;2022-07-10T14:30:49;1.70;;;1.50;;
62037;SDS011;47991;42.974;12.082;2022-07-10T14:33:17;3.40;;;1.70;;
62037;SDS011;47991;42.974;12.082;2022-07-10T14:35:44;2.40;;;1.70;;
62037;SDS011;47991;42.974;12.082;2022-07-10T14:38:11;3.10;;;1.90;;
62037;SDS011;47991;42.974;12.082;2022-07-10T14:40:39;3.80;;;1.70;;
62037;SDS011;47991;42.974;12.082;2022-07-10T14:43:06;2.70;;;1.80;;
62037;SDS011;47991;42.974;12.082;2022-07-10T14:45:33;3.00;;;1.50;;
62037;SDS011;47991;42.974;12.082;2022-07-10T14:48:01;3.00;;;1.80;;
62037;SDS011;47991;42.974;12.082;2022-07-10T14:50:29;4.20;;;1.60;;
62037;SDS011;47991;42.974;12.082;2022-07-10T14:52:59;2.00;;;1.40;;
62037;SDS011;47991;42.974;12.082;2022-07-10T14:55:29;2.50;;;1.50;;
62037;SDS011;47991;42.974;12.082;2022-07-10T14:57:59;2.10;;;1.40;;
62037;SDS011;47991;42.974;12.082;2022-07-10T15:00:30;2.00;;;1.60;;
62037;SDS011;47991;42.974;12.082;2022-07-10T15:02:58;1.70;;;1.40;;
62037;SDS011;47991;42.974;12.082;2022-07-10T15:05:26;1.60;;;1.50;;
62037;SDS011;47991;42.974;12.082;2022-07-10T15:07:56;1.50;;;1.30;;
62037;SDS011;47991;42.974;12.082;2022-07-10T15:10:30;2.10;;;1.50;;
62037;SDS011;47991;42.974;12.082;2022-07-10T15:13:00;2.80;;;1.60;;
62037;SDS011;47991;42.974;12.082;2022-07-10T15:15:32;1.70;;;1.50;;
62037;SDS011;47991;42.974;12.082;2022-07-10T15:18:00;1.50;;;1.40;;
62037;SDS011;47991;42.974;12.082;2022-07-10T15:20:27;2.60;;;1.60;;
62037;SDS011;47991;42.974;12.082;2022-07-10T15:22:59;1.50;;;1.40;;
62037;SDS011;47991;42.974;12.082;2022-07-10T15:25:26;2.10;;;1.50;;
62037;SDS011;47991;42.974;12.082;2022-07-10T15:27:57;1.60;;;1.50;;
62037;SDS011;47991;42.974;12.082;2022-07-10T15:30:25;1.90;;;1.50;;
62037;SDS011;47991;42.974;12.082;2022-07-10T15:32:57;1.90;;;1.50;;
62037;SDS011;47991;42.974;12.082;2022-07-10T15:35:24;3.30;;;1.60;;
62037;SDS011;47991;42.974;12.082;2022-07-10T15:37:52;2.30;;;1.70;;